Time;durP1;ratioP1;P1;durP2;ratioP2;P2;SDS_P1;SDS_P2;PMS_P1;PMS_P2;Temp;Humidity;BMP_temperature;BMP_pressure;BME280_temperature;BME280_humidity;BME280_pressure;Samples;Min_cycle;Max_cycle;Signal;HPM_P1;HPM_P2
2023/05/07 03:17:20;;;;;;;1.15;0.20;;;15.30;80.40;;;;;;6204874;22;89342;-81
2023/05/07 03:19:46;;;;;;;1.75;0.35;;;15.20;80.40;;;;;;6250443;22;87841;-81
2023/05/07 03:22:11;;;;;;;1.38;0.10;;;15.20;80.70;;;;;;6249532;22;86987;-80
2023/05/07 03:24:37;;;;;;;1.50;0.17;;;15.20;80.70;;;;;;6223388;22;86710;-81
2023/05/07 03:27:03;;;;;;;1.48;0.25;;;15.10;81.00;;;;;;6249404;22;88057;-81
2023/05/07 03:29:28;;;;;;;1.73;0.20;;;15.10;80.80;;;;;;6248941;22;87744;-80
2023/05/07 03:31:54;;;;;;;1.63;0.20;;;15.00;81.10;;;;;;6248965;22;88292;-78
2023/05/07 03:34:21;;;;;;;2.65;0.15;;;15.00;81.30;;;;;;6221500;22;87172;-80
2023/05/07 03:36:50;;;;;;;2.38;0.20;;;14.90;81.40;;;;;;6248737;22;88367;-80
2023/05/07 03:39:16;;;;;;;2.97;0.20;;;14.90;81.40;;;;;;6247888;22;87847;-80
2023/05/07 03:41:42;;;;;;;1.02;0.20;;;14.90;81.80;;;;;;6249120;22;87269;-81
2023/05/07 03:44:07;;;;;;;2.55;0.10;;;14.90;81.60;;;;;;6248415;22;87066;-79
2023/05/07 03:46:34;;;;;;;2.35;0.20;;;14.90;81.40;;;;;;6248409;22;88425;-80
2023/05/07 03:48:59;;;;;;;1.42;0.10;;;14.90;81.30;;;;;;6221580;22;91819;-81
2023/05/07 03:51:25;;;;;;;1.13;0.10;;;14.80;81.10;;;;;;6248590;22;87242;-79
2023/05/07 03:53:56;;;;;;;2.58;0.20;;;14.90;80.70;;;;;;6248626;22;87392;-80
2023/05/07 03:56:22;;;;;;;0.98;0.10;;;14.90;80.50;;;;;;6247764;22;89019;-80
2023/05/07 03:58:48;;;;;;;1.02;0.13;;;14.90;80.70;;;;;;6248046;22;88147;-79
2023/05/07 04:01:14;;;;;;;3.78;0.30;;;14.90;80.60;;;;;;6248322;22;87397;-80
2023/05/07 04:03:40;;;;;;;1.80;0.30;;;14.90;81.00;;;;;;6246104;22;87406;-81
2023/05/07 04:06:06;;;;;;;2.58;0.30;;;14.80;81.30;;;;;;6220694;22;89764;-82
2023/05/07 04:08:31;;;;;;;3.60;0.30;;;14.80;81.70;;;;;;6220604;22;90150;-82
2023/05/07 04:10:58;;;;;;;3.20;0.30;;;14.80;81.50;;;;;;6248296;22;87028;-82
2023/05/07 04:13:24;;;;;;;2.28;0.32;;;14.70;81.80;;;;;;6221891;22;87451;-81
2023/05/07 04:15:51;;;;;;;1.08;0.28;;;14.80;81.60;;;;;;6248512;22;87600;-78
2023/05/07 04:18:17;;;;;;;2.75;0.30;;;14.80;81.70;;;;;;6218099;22;87610;-77
2023/05/07 04:20:42;;;;;;;2.45;0.30;;;14.90;81.80;;;;;;6216282;22;88256;-77
2023/05/07 04:23:08;;;;;;;1.40;0.22;;;15.00;81.70;;;;;;6217764;22;87482;-80
2023/05/07 04:25:34;;;;;;;3.08;0.20;;;15.10;81.50;;;;;;6216861;22;89034;-78
2023/05/07 04:28:00;;;;;;;1.55;0.30;;;15.30;81.10;;;;;;6217080;22;88250;-81
2023/05/07 04:30:25;;;;;;;1.45;0.30;;;15.30;80.50;;;;;;6216688;22;87264;-78
2023/05/07 04:32:52;;;;;;;1.63;0.20;;;15.50;80.30;;;;;;6190441;22;87604;-79
2023/05/07 04:35:18;;;;;;;1.92;0.32;;;15.70;79.80;;;;;;6217082;22;88965;-79
2023/05/07 04:37:44;;;;;;;5.70;0.30;;;15.90;79.30;;;;;;6217046;22;88651;-78
2023/05/07 04:40:10;;;;;;;1.63;0.30;;;16.10;78.30;;;;;;6217476;22;87297;-80
2023/05/07 04:42:36;;;;;;;2.20;0.30;;;16.30;77.60;;;;;;6216968;22;87655;-81
2023/05/07 04:45:02;;;;;;;1.35;0.43;;;16.60;76.80;;;;;;6215843;22;89380;-80
2023/05/07 04:47:28;;;;;;;2.60;0.38;;;16.80;77.00;;;;;;6217323;22;88853;-79
2023/05/07 04:49:53;;;;;;;1.42;0.32;;;17.10;75.50;;;;;;6217251;22;87296;-79
2023/05/07 04:52:20;;;;;;;1.33;0.40;;;17.40;74.80;;;;;;6217611;22;87264;-82
2023/05/07 04:54:45;;;;;;;3.22;0.40;;;17.70;73.90;;;;;;6217345;22;87675;-84
2023/05/07 04:57:11;;;;;;;4.20;0.40;;;18.30;71.50;;;;;;6217100;22;88488;-81
2023/05/07 04:59:37;;;;;;;2.13;0.38;;;18.80;69.80;;;;;;6216674;22;87370;-81
2023/05/07 05:02:04;;;;;;;1.98;0.45;;;19.30;69.10;;;;;;6218557;22;86521;-87
2023/05/07 05:04:30;;;;;;;2.22;0.70;;;19.90;67.80;;;;;;6216592;22;87555;-81
2023/05/07 05:06:55;;;;;;;7.07;0.40;;;20.30;65.60;;;;;;6215068;22;87723;-80
2023/05/07 05:09:21;;;;;;;1.20;0.50;;;20.80;64.10;;;;;;6215613;22;88647;-79
2023/05/07 05:11:47;;;;;;;2.17;0.65;;;21.40;62.10;;;;;;6189095;22;88842;-79
2023/05/07 05:14:13;;;;;;;1.92;0.30;;;22.20;59.50;;;;;;6215001;22;89094;-80
2023/05/07 05:16:39;;;;;;;2.70;0.63;;;22.80;58.80;;;;;;6215446;22;87479;-82
2023/05/07 05:19:04;;;;;;;1.50;0.50;;;23.30;57.20;;;;;;6215708;22;87450;-79
2023/05/07 05:21:31;;;;;;;3.63;0.60;;;23.70;56.50;;;;;;6216869;22;86979;-77
2023/05/07 05:23:57;;;;;;;2.28;0.40;;;24.10;55.30;;;;;;6217123;22;87348;-78
2023/05/07 05:26:23;;;;;;;2.13;0.38;;;24.50;55.20;;;;;;6216541;22;86585;-78
2023/05/07 05:28:49;;;;;;;1.23;0.30;;;25.20;54.20;;;;;;6217138;22;87254;-81
2023/05/07 05:31:16;;;;;;;3.28;0.95;;;25.40;53.20;;;;;;6216422;22;87073;-78
2023/05/07 05:33:41;;;;;;;2.97;0.73;;;25.60;52.30;;;;;;6215046;22;88616;-81
2023/05/07 05:36:10;;;;;;;2.22;0.50;;;25.70;51.40;;;;;;6216197;22;88669;-77
2023/05/07 05:38:36;;;;;;;1.30;0.55;;;26.10;51.00;;;;;;6217342;22;87206;-78
2023/05/07 05:41:02;;;;;;;2.67;0.55;;;26.20;49.70;;;;;;6216671;22;87382;-78
2023/05/07 05:43:27;;;;;;;2.78;0.40;;;26.20;49.70;;;;;;6211481;22;88609;-79
2023/05/07 05:45:53;;;;;;;1.50;0.50;;;26.60;48.90;;;;;;6211749;22;87794;-78
2023/05/07 05:48:19;;;;;;;2.42;0.57;;;26.60;49.00;;;;;;6213332;22;87475;-81
2023/05/07 05:50:45;;;;;;;1.73;0.40;;;26.70;48.80;;;;;;6214000;22;86672;-79
2023/05/07 05:53:10;;;;;;;1.30;0.43;;;27.00;48.90;;;;;;6213652;22;88148;-78
2023/05/07 05:55:37;;;;;;;4.45;0.35;;;27.20;47.00;;;;;;6186341;22;89230;-78
2023/05/07 05:58:02;;;;;;;2.85;0.55;;;27.70;47.90;;;;;;6213041;22;88326;-78
2023/05/07 06:00:29;;;;;;;1.90;0.70;;;28.00;46.20;;;;;;6213587;22;87453;-77
2023/05/07 06:02:55;;;;;;;1.98;0.82;;;28.00;46.50;;;;;;6213405;22;88573;-78
2023/05/07 06:05:20;;;;;;;1.42;1.05;;;28.30;45.00;;;;;;6211444;22;88174;-76
2023/05/07 06:07:46;;;;;;;1.27;0.47;;;28.40;44.90;;;;;;6212260;22;87426;-78
2023/05/07 06:10:12;;;;;;;2.20;0.40;;;29.10;44.30;;;;;;6212495;22;87326;-78
2023/05/07 06:12:37;;;;;;;1.13;0.45;;;29.30;44.60;;;;;;6210757;22;88913;-78
2023/05/07 06:15:04;;;;;;;1.27;0.43;;;29.60;43.50;;;;;;6212241;22;87738;-77
2023/05/07 06:17:30;;;;;;;1.10;0.45;;;29.70;42.90;;;;;;6211403;22;87682;-77
2023/05/07 06:19:56;;;;;;;1.30;0.52;;;29.60;42.90;;;;;;6213850;22;87300;-77
2023/05/07 06:22:21;;;;;;;1.63;0.55;;;30.00;43.50;;;;;;6210601;22;89055;-77
2023/05/07 06:24:47;;;;;;;2.85;0.77;;;30.00;42.50;;;;;;6212301;22;89074;-79
2023/05/07 06:27:13;;;;;;;2.17;0.80;;;30.10;43.40;;;;;;6215576;22;87305;-79
2023/05/07 06:29:38;;;;;;;2.28;0.52;;;30.70;41.80;;;;;;6214358;22;87628;-77
2023/05/07 06:32:12;;;;;;;3.30;1.05;;;30.60;41.00;;;;;;6210848;22;88152;-77
2023/05/07 06:34:38;;;;;;;2.80;0.75;;;30.50;42.40;;;;;;6213005;22;87508;-80
2023/05/07 06:37:04;;;;;;;1.67;0.95;;;30.70;41.40;;;;;;6184955;22;87551;-76
2023/05/07 06:39:30;;;;;;;5.13;0.55;;;30.90;43.20;;;;;;6214838;22;86773;-79
2023/05/07 06:41:56;;;;;;;2.35;1.25;;;31.40;41.40;;;;;;6185087;22;89829;-80
2023/05/07 06:44:22;;;;;;;3.38;1.13;;;31.70;42.00;;;;;;6208042;22;88053;-79
2023/05/07 06:46:47;;;;;;;2.90;1.30;;;31.90;40.00;;;;;;6212544;22;88447;-81
2023/05/07 06:49:14;;;;;;;3.70;1.05;;;32.20;40.30;;;;;;6209471;22;87811;-79
2023/05/07 06:51:39;;;;;;;2.70;1.63;;;32.20;40.80;;;;;;6211507;22;88035;-79
2023/05/07 06:54:05;;;;;;;2.03;1.45;;;33.00;40.60;;;;;;6207622;22;88177;-79
2023/05/07 06:56:32;;;;;;;4.38;1.77;;;33.50;41.50;;;;;;6209015;22;87533;-82
2023/05/07 06:58:57;;;;;;;2.75;1.23;;;34.00;41.00;;;;;;6212300;22;87356;-80
2023/05/07 07:01:23;;;;;;;3.28;1.83;;;34.50;39.70;;;;;;6212660;22;88196;-83
2023/05/07 07:03:49;;;;;;;3.38;2.15;;;34.50;40.50;;;;;;6210615;22;87536;-82
2023/05/07 07:06:14;;;;;;;3.10;1.77;;;34.30;40.30;;;;;;6211240;22;87664;-79
2023/05/07 07:08:40;;;;;;;5.70;3.28;;;34.20;39.50;;;;;;6208881;22;87734;-78
2023/05/07 07:11:06;;;;;;;4.10;1.65;;;34.30;40.00;;;;;;6210241;22;89361;-82
2023/05/07 07:13:32;;;;;;;6.00;1.98;;;33.40;39.30;;;;;;6212252;22;88614;-81
2023/05/07 07:15:57;;;;;;;3.15;2.50;;;33.80;40.90;;;;;;6213760;22;87689;-80
2023/05/07 07:18:23;;;;;;;4.57;1.38;;;34.00;39.40;;;;;;6208544;22;87534;-81
2023/05/07 07:20:49;;;;;;;3.28;1.95;;;34.70;40.60;;;;;;6213382;22;88174;-80
2023/05/07 07:23:15;;;;;;;5.50;2.75;;;35.00;39.40;;;;;;6212955;22;88622;-80
2023/05/07 07:25:41;;;;;;;5.47;2.05;;;34.80;39.10;;;;;;6211598;22;87677;-83
2023/05/07 07:28:06;;;;;;;2.85;2.03;;;34.60;39.60;;;;;;6214192;22;86838;-81
2023/05/07 07:30:32;;;;;;;5.32;1.73;;;34.70;40.10;;;;;;6213500;22;87592;-81
2023/05/07 07:33:02;;;;;;;3.30;1.23;;;34.40;39.10;;;;;;6212837;22;87430;-80
2023/05/07 07:35:31;;;;;;;3.50;2.45;;;34.00;39.50;;;;;;6212231;22;88210;-80
2023/05/07 07:37:57;;;;;;;3.33;2.00;;;33.50;40.30;;;;;;6213066;22;87397;-79
2023/05/07 07:40:24;;;;;;;3.33;1.67;;;32.80;41.70;;;;;;6214221;22;88382;-81
2023/05/07 07:42:53;;;;;;;2.80;2.08;;;32.00;43.00;;;;;;6213616;22;88869;-79
2023/05/07 07:45:19;;;;;;;3.60;2.00;;;31.30;43.50;;;;;;6211884;22;87362;-80
2023/05/07 07:47:45;;;;;;;3.95;2.53;;;30.30;45.00;;;;;;6214970;22;87377;-78
2023/05/07 07:50:11;;;;;;;3.08;2.22;;;30.10;45.10;;;;;;6213670;22;88569;-79
2023/05/07 07:52:37;;;;;;;3.42;2.67;;;30.30;45.10;;;;;;6213882;22;87649;-79
2023/05/07 07:55:04;;;;;;;8.65;3.20;;;31.10;45.20;;;;;;6212276;22;87347;-81
2023/05/07 07:57:30;;;;;;;4.03;1.75;;;31.70;43.20;;;;;;6213077;22;87314;-79
2023/05/07 07:59:56;;;;;;;4.38;2.00;;;31.90;43.70;;;;;;6214002;22;88876;-80
2023/05/07 08:02:21;;;;;;;4.18;2.17;;;31.70;43.60;;;;;;6214254;22;87723;-80
2023/05/07 08:04:47;;;;;;;3.92;2.33;;;32.20;44.30;;;;;;6214657;22;87207;-81
2023/05/07 08:07:13;;;;;;;4.50;2.45;;;32.00;43.70;;;;;;6211244;22;87667;-79
2023/05/07 08:09:40;;;;;;;5.38;1.88;;;31.80;44.00;;;;;;6212489;22;88862;-78
2023/05/07 08:12:06;;;;;;;6.00;2.33;;;31.30;44.30;;;;;;6187259;22;88803;-81
2023/05/07 08:14:32;;;;;;;4.07;2.13;;;31.20;45.40;;;;;;6213452;22;87418;-84
2023/05/07 08:16:58;;;;;;;5.53;1.88;;;30.70;45.10;;;;;;6212810;22;87018;-82
2023/05/07 08:19:24;;;;;;;5.78;2.45;;;30.40;46.20;;;;;;6211743;22;88537;-82
2023/05/07 08:21:50;;;;;;;4.15;2.38;;;30.60;45.60;;;;;;6214157;22;87201;-83
2023/05/07 08:24:17;;;;;;;4.40;2.08;;;30.20;45.80;;;;;;6209701;22;88465;-79
2023/05/07 08:26:43;;;;;;;3.83;1.85;;;29.30;47.60;;;;;;6214442;22;87619;-79
2023/05/07 08:29:09;;;;;;;3.67;1.95;;;28.80;48.80;;;;;;6209854;22;87708;-82
2023/05/07 08:31:35;;;;;;;3.67;2.10;;;28.40;49.60;;;;;;6207656;22;87772;-83
2023/05/07 08:34:01;;;;;;;5.10;2.58;;;28.30;50.40;;;;;;6206677;22;87542;-82
2023/05/07 08:36:26;;;;;;;4.50;2.42;;;28.50;50.70;;;;;;6209574;22;87007;-80
2023/05/07 08:38:52;;;;;;;5.28;2.30;;;28.60;50.30;;;;;;6213437;22;87671;-77
2023/05/07 08:41:18;;;;;;;4.30;2.65;;;29.60;49.10;;;;;;6213175;22;88395;-80
2023/05/07 08:43:50;;;;;;;5.40;2.38;;;31.10;46.80;;;;;;6214709;22;87617;-77
2023/05/07 08:46:20;;;;;;;7.55;2.67;;;32.00;45.10;;;;;;6214293;22;87461;-80
2023/05/07 08:48:50;;;;;;;3.92;2.78;;;32.30;44.60;;;;;;6213405;22;89240;-79
2023/05/07 08:51:20;;;;;;;5.60;2.58;;;33.00;43.30;;;;;;6205658;22;88445;-81
2023/05/07 08:53:48;;;;;;;3.75;2.78;;;33.50;42.50;;;;;;6210046;22;87735;-83
2023/05/07 08:56:15;;;;;;;5.22;2.53;;;34.20;41.70;;;;;;6208169;22;87364;-81
2023/05/07 08:58:41;;;;;;;4.95;2.85;;;34.80;40.20;;;;;;6213313;22;88058;-78
2023/05/07 09:01:14;;;;;;;4.47;3.25;;;34.70;39.90;;;;;;6214793;22;87806;-78
2023/05/07 09:03:41;;;;;;;6.20;3.00;;;34.50;40.50;;;;;;6206920;22;87593;-86
2023/05/07 09:06:07;;;;;;;4.05;2.95;;;34.50;41.30;;;;;;6212330;22;86689;-81
2023/05/07 09:08:34;;;;;;;4.22;2.60;;;34.70;40.50;;;;;;6214447;22;88006;-84
2023/05/07 09:11:00;;;;;;;3.45;2.33;;;34.60;41.10;;;;;;6215270;22;87924;-81
2023/05/07 09:13:27;;;;;;;3.95;2.80;;;35.10;40.80;;;;;;6182929;22;88485;-85
2023/05/07 09:15:53;;;;;;;4.55;2.45;;;35.10;39.50;;;;;;6205457;22;87587;-82
2023/05/07 09:18:19;;;;;;;5.65;2.55;;;35.00;39.90;;;;;;6209095;22;88103;-83
2023/05/07 09:20:45;;;;;;;4.13;2.20;;;34.80;39.80;;;;;;6203509;22;87626;-87
2023/05/07 09:23:11;;;;;;;4.57;3.15;;;34.40;41.40;;;;;;6212726;22;87365;-80
2023/05/07 09:25:37;;;;;;;4.60;2.63;;;34.80;39.60;;;;;;6212628;22;87597;-77
2023/05/07 09:28:04;;;;;;;3.53;2.05;;;35.00;39.80;;;;;;6214275;22;87636;-79
2023/05/07 09:30:31;;;;;;;4.30;2.25;;;35.10;39.00;;;;;;6208480;22;87589;-79
2023/05/07 09:32:59;;;;;;;4.45;2.45;;;35.20;38.80;;;;;;6211478;22;87493;-76
2023/05/07 09:35:27;;;;;;;3.25;2.42;;;34.70;39.10;;;;;;6211940;22;87324;-80
2023/05/07 09:37:56;;;;;;;2.40;1.90;;;34.40;38.00;;;;;;6211166;22;88950;-78
2023/05/07 09:40:24;;;;;;;3.00;2.10;;;34.60;38.30;;;;;;6212088;22;88418;-76
2023/05/07 09:42:50;;;;;;;4.13;2.38;;;34.80;40.40;;;;;;6212467;22;87286;-80
2023/05/07 09:45:28;;;;;;;3.63;2.75;;;35.30;38.20;;;;;;6210719;22;87356;-75
2023/05/07 09:47:58;;;;;;;3.58;2.25;;;35.40;37.40;;;;;;6212558;22;87478;-75
2023/05/07 09:50:28;;;;;;;3.53;2.10;;;35.20;37.80;;;;;;6211287;22;87387;-77
2023/05/07 09:52:55;;;;;;;3.63;2.08;;;34.70;39.00;;;;;;6216841;22;87290;-76
2023/05/07 09:55:22;;;;;;;3.95;2.55;;;35.10;39.60;;;;;;6215089;22;86688;-74
2023/05/07 09:57:52;;;;;;;3.03;2.38;;;35.60;38.60;;;;;;6189764;22;90882;-77
2023/05/07 10:00:21;;;;;;;3.95;2.28;;;35.50;38.10;;;;;;6213687;22;87633;-77
2023/05/07 10:02:51;;;;;;;3.58;2.50;;;35.00;38.40;;;;;;6214361;22;88347;-77
2023/05/07 10:05:22;;;;;;;3.25;2.85;;;35.10;38.10;;;;;;6214978;22;87470;-76
2023/05/07 10:07:48;;;;;;;3.60;2.28;;;34.00;39.50;;;;;;6213046;22;88355;-77
2023/05/07 10:10:15;;;;;;;4.97;1.83;;;32.90;40.50;;;;;;6213663;22;88241;-79
2023/05/07 10:12:41;;;;;;;3.13;1.75;;;32.00;41.20;;;;;;6214795;22;86994;-78
2023/05/07 10:15:08;;;;;;;3.35;1.85;;;31.80;42.00;;;;;;6187582;22;87713;-77
2023/05/07 10:17:38;;;;;;;6.45;1.48;;;31.60;43.20;;;;;;6215160;22;87526;-78
2023/05/07 10:20:05;;;;;;;4.03;1.75;;;31.30;44.50;;;;;;6217717;22;88864;-78
2023/05/07 10:22:40;;;;;;;2.85;2.10;;;31.00;44.00;;;;;;6216090;22;87277;-78
2023/05/07 10:25:16;;;;;;;3.67;1.95;;;30.90;44.00;;;;;;6216976;22;87416;-78
2023/05/07 10:27:44;;;;;;;2.33;1.42;;;30.40;44.00;;;;;;6216067;22;89822;-73
2023/05/07 10:30:32;;;;;;;6.00;1.08;;;30.50;47.00;;;;;;6216114;22;88650;-73
2023/05/07 10:33:05;;;;;;;2.78;1.55;;;30.30;47.00;;;;;;6216677;22;87314;-74
2023/05/07 10:35:37;;;;;;;3.33;1.50;;;29.90;44.30;;;;;;6218268;22;87687;-73
2023/05/07 10:38:04;;;;;;;4.18;1.02;;;28.70;47.20;;;;;;6218148;22;88009;-73
2023/05/07 10:40:31;;;;;;;5.78;1.35;;;28.50;49.00;;;;;;6191593;22;89840;-73
2023/05/07 10:43:02;;;;;;;2.58;1.10;;;28.30;49.20;;;;;;6217683;22;87313;-73
2023/05/07 10:45:28;;;;;;;2.03;0.93;;;28.00;48.30;;;;;;6218123;22;86295;-73
2023/05/07 10:48:13;;;;;;;2.70;1.05;;;27.90;48.40;;;;;;6216339;22;87869;-71
2023/05/07 10:50:40;;;;;;;2.83;1.58;;;27.80;48.40;;;;;;6216721;22;87613;-73
2023/05/07 10:53:28;;;;;;;2.42;1.17;;;27.30;48.20;;;;;;6215863;22;88711;-73
2023/05/07 10:56:16;;;;;;;3.65;1.20;;;26.90;50.40;;;;;;6219008;22;87394;-73
2023/05/07 10:58:42;;;;;;;4.10;1.00;;;26.80;51.30;;;;;;6199022;22;87471;-73
2023/05/07 11:01:08;;;;;;;2.83;1.10;;;26.70;52.50;;;;;;6218079;22;87594;-73
2023/05/07 11:03:33;;;;;;;3.47;0.70;;;26.70;50.50;;;;;;6218434;22;87365;-73
2023/05/07 11:06:13;;;;;;;2.33;1.02;;;26.60;51.70;;;;;;6218435;22;86975;-73
2023/05/07 11:08:56;;;;;;;2.72;0.82;;;27.00;51.80;;;;;;6217562;22;88035;-73
2023/05/07 11:11:52;;;;;;;2.25;1.02;;;27.30;50.80;;;;;;6218417;22;87797;-73
2023/05/07 11:14:57;;;;;;;3.53;1.13;;;27.30;49.40;;;;;;6218216;22;87220;-74
2023/05/07 11:17:23;;;;;;;2.92;1.40;;;27.40;50.00;;;;;;6093979;23;87435;-73
2023/05/07 11:19:53;;;;;;;3.60;0.95;;;27.60;50.50;;;;;;6092147;23;89025;-73
2023/05/07 11:22:31;;;;;;;3.38;1.10;;;27.80;49.70;;;;;;6155281;22;89237;-74
2023/05/07 11:25:00;;;;;;;2.20;0.93;;;28.00;48.20;;;;;;6217816;22;87284;-73
2023/05/07 11:27:27;;;;;;;1.88;0.70;;;27.70;48.30;;;;;;6218635;22;87111;-73
2023/05/07 11:29:53;;;;;;;3.58;0.82;;;27.70;47.10;;;;;;6217652;22;87913;-73
2023/05/07 11:32:32;;;;;;;2.97;0.75;;;27.70;48.40;;;;;;6218418;22;87473;-75
2023/05/07 11:34:59;;;;;;;3.33;1.15;;;27.80;47.60;;;;;;6217378;22;87446;-74
2023/05/07 11:37:28;;;;;;;1.42;0.65;;;27.80;48.20;;;;;;6215863;22;88595;-75
2023/05/07 11:40:03;;;;;;;1.95;0.50;;;27.50;46.70;;;;;;6215769;22;87577;-74
2023/05/07 11:42:35;;;;;;;3.03;0.80;;;26.70;47.90;;;;;;6213979;22;88312;-74
2023/05/07 11:45:01;;;;;;;2.70;0.70;;;26.60;49.30;;;;;;6216921;22;89122;-74
2023/05/07 11:47:31;;;;;;;2.47;1.00;;;26.70;49.10;;;;;;6216480;22;88234;-75
2023/05/07 11:49:56;;;;;;;2.38;0.55;;;26.50;49.50;;;;;;6217317;22;87689;-74
2023/05/07 11:52:23;;;;;;;4.93;0.73;;;26.60;49.80;;;;;;6217059;22;87264;-75
2023/05/07 11:54:54;;;;;;;1.52;0.82;;;27.10;50.40;;;;;;6217076;22;87141;-76
2023/05/07 11:57:20;;;;;;;4.07;0.70;;;27.50;49.00;;;;;;6217962;22;87382;-74
2023/05/07 11:59:49;;;;;;;1.75;0.70;;;27.80;49.10;;;;;;6217260;22;87569;-73
2023/05/07 12:02:15;;;;;;;1.42;0.63;;;27.40;48.40;;;;;;6191225;22;88180;-73
2023/05/07 12:04:41;;;;;;;1.63;0.80;;;27.80;49.90;;;;;;6215804;22;87591;-75
2023/05/07 12:07:14;;;;;;;1.88;0.63;;;27.70;48.90;;;;;;6213874;22;87135;-74
2023/05/07 12:09:43;;;;;;;1.23;0.52;;;27.70;48.90;;;;;;6215321;22;88936;-74
2023/05/07 12:12:08;;;;;;;2.05;0.88;;;27.50;49.00;;;;;;6211577;22;89002;-73
2023/05/07 12:14:41;;;;;;;1.27;0.50;;;27.70;49.30;;;;;;6208716;22;87499;-75
2023/05/07 12:17:08;;;;;;;2.00;1.50;;;27.60;49.90;;;;;;6211708;22;87339;-74
2023/05/07 12:19:35;;;;;;;2.60;0.55;;;27.00;48.90;;;;;;6216103;22;87475;-74
2023/05/07 12:22:03;;;;;;;4.53;1.27;;;26.60;51.30;;;;;;6209426;22;87852;-76
2023/05/07 12:24:29;;;;;;;2.22;0.63;;;26.60;50.60;;;;;;6214581;22;87345;-75
2023/05/07 12:26:54;;;;;;;2.72;0.50;;;26.60;51.00;;;;;;6216308;22;86531;-75
2023/05/07 12:29:23;;;;;;;2.20;0.63;;;26.50;53.50;;;;;;6212594;22;88129;-76
2023/05/07 12:31:50;;;;;;;1.95;0.65;;;26.70;50.90;;;;;;6216127;22;88144;-75
2023/05/07 12:34:16;;;;;;;1.83;0.40;;;26.60;50.40;;;;;;6211636;22;88097;-75
2023/05/07 12:36:42;;;;;;;1.75;0.52;;;26.50;51.00;;;;;;6211403;22;87638;-76
2023/05/07 12:39:08;;;;;;;2.88;0.57;;;26.30;51.10;;;;;;6207942;22;87560;-77
2023/05/07 12:41:55;;;;;;;1.95;0.60;;;26.80;51.80;;;;;;6206748;22;88153;-74
2023/05/07 12:44:29;;;;;;;3.05;0.95;;;27.10;51.30;;;;;;6208896;22;87557;-77
2023/05/07 12:46:55;;;;;;;1.50;0.50;;;26.80;51.60;;;;;;6211825;22;87411;-76
2023/05/07 12:49:23;;;;;;;2.00;0.55;;;27.00;50.60;;;;;;6210681;22;88107;-76
2023/05/07 12:51:49;;;;;;;2.63;0.50;;;27.10;51.30;;;;;;6212578;22;88072;-75
2023/05/07 12:54:36;;;;;;;3.03;0.60;;;27.20;49.40;;;;;;6208139;22;87545;-78
2023/05/07 12:57:06;;;;;;;2.10;0.52;;;27.20;49.30;;;;;;6207015;22;87580;-77
2023/05/07 12:59:36;;;;;;;3.25;0.55;;;27.10;51.80;;;;;;6205156;22;89664;-76
2023/05/07 13:02:02;;;;;;;2.72;0.93;;;26.70;51.00;;;;;;6205530;22;88826;-76
2023/05/07 13:04:28;;;;;;;2.88;1.20;;;26.60;51.30;;;;;;6204852;22;87399;-77
2023/05/07 13:06:54;;;;;;;1.90;0.55;;;26.60;52.30;;;;;;6204842;22;87846;-73
2023/05/07 13:09:20;;;;;;;4.63;0.88;;;26.60;51.30;;;;;;6205926;22;87510;-76
2023/05/07 13:11:46;;;;;;;2.40;0.90;;;26.40;51.00;;;;;;6204847;22;87552;-76
2023/05/07 13:14:12;;;;;;;1.33;0.60;;;26.40;52.80;;;;;;6205739;22;87444;-76
2023/05/07 13:16:37;;;;;;;2.60;0.63;;;26.40;53.50;;;;;;6207117;22;86567;-76
2023/05/07 13:19:03;;;;;;;5.57;1.15;;;26.50;52.00;;;;;;6206882;22;87699;-77
2023/05/07 13:21:31;;;;;;;5.28;1.40;;;26.50;52.30;;;;;;6203949;22;87631;-77
2023/05/07 13:23:57;;;;;;;2.53;0.93;;;26.50;52.90;;;;;;6205988;22;88062;-76
2023/05/07 13:26:24;;;;;;;2.53;0.70;;;26.50;52.20;;;;;;6207072;22;88655;-76
2023/05/07 13:28:50;;;;;;;3.38;1.23;;;26.40;53.00;;;;;;6206681;22;87980;-76
2023/05/07 13:31:17;;;;;;;3.10;1.05;;;26.50;53.80;;;;;;6210178;22;87573;-75
2023/05/07 13:33:42;;;;;;;2.20;0.82;;;26.30;52.60;;;;;;6183622;22;87216;-76
2023/05/07 13:36:09;;;;;;;1.85;1.00;;;26.30;52.20;;;;;;6186277;22;87580;-77
2023/05/07 13:38:35;;;;;;;3.70;0.80;;;26.30;52.40;;;;;;6208045;22;87444;-76
2023/05/07 13:41:00;;;;;;;4.80;0.82;;;26.30;52.10;;;;;;6209512;22;88227;-76
2023/05/07 13:43:26;;;;;;;2.10;0.80;;;26.30;52.30;;;;;;6209759;22;87328;-76
2023/05/07 13:45:52;;;;;;;5.28;1.00;;;26.40;52.40;;;;;;6209360;22;87477;-76
2023/05/07 13:48:18;;;;;;;2.45;0.73;;;26.50;52.20;;;;;;6218059;22;89169;-76
2023/05/07 13:50:43;;;;;;;3.47;1.70;;;26.40;52.10;;;;;;6212557;22;88901;-77
2023/05/07 13:53:09;;;;;;;2.65;1.17;;;26.30;52.40;;;;;;6213970;22;87309;-76
2023/05/07 13:55:35;;;;;;;6.38;0.90;;;26.40;52.60;;;;;;6217264;22;87470;-76
2023/05/07 13:58:02;;;;;;;2.83;0.77;;;26.20;52.70;;;;;;6190977;22;91177;-76
2023/05/07 14:00:29;;;;;;;1.98;0.70;;;26.10;53.40;;;;;;6217559;22;87823;-77
2023/05/07 14:02:56;;;;;;;2.88;1.05;;;26.00;53.80;;;;;;6210043;22;87334;-76
2023/05/07 14:05:26;;;;;;;4.40;1.08;;;26.00;53.80;;;;;;6205741;22;86603;-76
2023/05/07 14:07:52;;;;;;;4.10;0.93;;;26.00;54.80;;;;;;6216915;22;88705;-75
2023/05/07 14:10:19;;;;;;;4.22;1.00;;;25.90;54.10;;;;;;6217506;22;87514;-76
2023/05/07 14:12:45;;;;;;;2.50;0.95;;;26.00;54.30;;;;;;6207550;22;88276;-75
2023/05/07 14:15:11;;;;;;;3.38;1.02;;;26.10;54.50;;;;;;6210653;22;87382;-74
2023/05/07 14:17:37;;;;;;;4.10;1.55;;;26.10;54.60;;;;;;6210533;22;87307;-74
2023/05/07 14:20:03;;;;;;;4.03;1.45;;;26.10;54.30;;;;;;6212012;22;88492;-76
2023/05/07 14:22:28;;;;;;;2.90;0.95;;;26.00;54.90;;;;;;6212611;22;87447;-75
2023/05/07 14:24:54;;;;;;;5.10;1.17;;;25.80;54.20;;;;;;6204744;22;87504;-75
2023/05/07 14:27:20;;;;;;;5.00;1.60;;;25.70;53.90;;;;;;6207619;22;87827;-75
2023/05/07 14:29:50;;;;;;;4.50;0.98;;;25.50;54.20;;;;;;6211062;22;87199;-76
2023/05/07 14:32:17;;;;;;;3.30;1.00;;;25.30;54.70;;;;;;6211766;22;87505;-75
2023/05/07 14:34:43;;;;;;;2.22;0.80;;;25.20;55.30;;;;;;6214661;22;87493;-75
2023/05/07 14:37:09;;;;;;;3.83;1.33;;;25.00;55.60;;;;;;6209098;22;88582;-76
2023/05/07 14:39:35;;;;;;;3.38;1.55;;;24.90;55.80;;;;;;6207735;22;88881;-74
2023/05/07 14:42:00;;;;;;;2.60;0.90;;;24.80;55.80;;;;;;6214935;22;87438;-79
2023/05/07 14:44:26;;;;;;;2.45;0.80;;;24.60;55.80;;;;;;6215361;22;87391;-79
2023/05/07 14:46:52;;;;;;;4.18;0.93;;;24.50;56.60;;;;;;6215185;22;88612;-79
2023/05/07 14:49:17;;;;;;;4.78;1.30;;;24.50;56.70;;;;;;6215358;22;87821;-79
2023/05/07 14:51:45;;;;;;;2.58;0.95;;;24.40;56.60;;;;;;6215466;22;87865;-78
2023/05/07 14:54:11;;;;;;;5.28;0.90;;;24.30;57.50;;;;;;6216492;22;86687;-79
2023/05/07 14:56:37;;;;;;;4.03;0.88;;;24.10;57.70;;;;;;6213443;22;87555;-79
2023/05/07 14:59:03;;;;;;;3.22;0.95;;;24.20;57.80;;;;;;6214619;22;87449;-80
2023/05/07 15:01:29;;;;;;;3.38;1.02;;;24.10;58.00;;;;;;6185102;22;88331;-79
2023/05/07 15:03:55;;;;;;;4.43;1.20;;;24.00;58.40;;;;;;6210805;22;87584;-82
2023/05/07 15:06:21;;;;;;;4.63;1.55;;;23.80;58.90;;;;;;6205800;22;88456;-82
2023/05/07 15:08:48;;;;;;;6.28;1.38;;;23.70;59.30;;;;;;6206469;22;87929;-81
2023/05/07 15:11:14;;;;;;;2.45;0.95;;;23.60;59.30;;;;;;6211030;22;87503;-81
2023/05/07 15:13:41;;;;;;;3.38;1.08;;;23.50;59.40;;;;;;6215573;22;87160;-79
2023/05/07 15:16:07;;;;;;;2.20;0.80;;;23.40;59.80;;;;;;6215553;22;88495;-79
2023/05/07 15:18:32;;;;;;;4.38;1.40;;;23.20;60.20;;;;;;6213318;22;87811;-78
2023/05/07 15:20:58;;;;;;;3.25;1.00;;;23.20;60.20;;;;;;6215822;22;87128;-80
2023/05/07 15:23:24;;;;;;;4.07;0.90;;;23.10;60.70;;;;;;6215515;22;87328;-82
2023/05/07 15:25:50;;;;;;;4.80;0.98;;;23.00;61.20;;;;;;6214052;22;89062;-83
2023/05/07 15:28:15;;;;;;;5.18;0.73;;;22.90;61.70;;;;;;6214532;22;88629;-78
2023/05/07 15:30:41;;;;;;;3.53;0.85;;;22.80;62.10;;;;;;6215935;22;87871;-82
2023/05/07 15:33:07;;;;;;;2.20;0.90;;;22.60;62.70;;;;;;6216632;22;87061;-80
2023/05/07 15:35:32;;;;;;;3.00;1.08;;;22.60;63.00;;;;;;6214216;22;88312;-78
2023/05/07 15:37:58;;;;;;;3.65;1.05;;;22.40;63.30;;;;;;6215252;22;86990;-76
2023/05/07 15:40:24;;;;;;;3.70;0.90;;;22.40;64.30;;;;;;6216646;22;87524;-74
2023/05/07 15:42:53;;;;;;;5.00;0.88;;;22.50;62.40;;;;;;6216292;22;86763;-75
2023/05/07 15:45:19;;;;;;;;;;;22.60;60.70;;;;;;6216309;22;88004;-75
2023/05/07 15:47:45;;;;;;;5.72;0.63;;;22.60;59.50;;;;;;6216314;22;86892;-75
2023/05/07 15:50:11;;;;;;;2.40;0.90;;;22.60;59.70;;;;;;6215601;22;88319;-77
2023/05/07 15:52:38;;;;;;;1.67;0.80;;;22.50;60.20;;;;;;6215225;22;87436;-72
2023/05/07 15:55:05;;;;;;;2.63;0.70;;;22.50;60.50;;;;;;6213568;22;87958;-76
2023/05/07 15:57:31;;;;;;;3.55;0.85;;;22.50;61.80;;;;;;6190184;22;90155;-74
2023/05/07 15:59:57;;;;;;;3.10;0.63;;;22.60;60.70;;;;;;6216374;22;87368;-75
2023/05/07 16:02:23;;;;;;;1.75;0.75;;;22.50;60.20;;;;;;6216420;22;87533;-74
2023/05/07 16:04:49;;;;;;;3.45;0.82;;;22.50;61.20;;;;;;6215901;22;88969;-76